Cincinnati, OH

6:47 PM EST on February 01, 2015 (GMT -0500)
The Compound, White Oak | Change Station
CLOSE
Current Station
Personal Weather Station
Location: Cincinnati, OH
Elevation: 901 ft
Nearby Weather Stations

Elev 901 ft 39.20 °N, 84.61 °W | Updated 2 seconds ago

Rain
Rain
44.2 °F
Feels Like 41 °F
N
5.4
Wind Variable Wind from West
Gusts 6.3 mph

Today
High -- | Low -- °F
--% Chance of Precip.
Yesterday
High -- | Low -- °F
Precip. -- in
7:45 AM 5:58 PM
Waxing Gibbous, 96% visible
Pressure 29.60 in
Visibility 4.0 miles
Clouds Overcast 600 ft
Windchill 41 °F
Dew Point 40 °F
Humidity 86%
Rainfall 0.20 in
Snow Depth Not available.
UV 0 out of 12
Pollen .10 out of 12
Air Quality Not available.
Flu Activity Not available.
SPECI KHAO 012302Z AUTO VRB03KT 4SM -RA BR OVC006 06/06 A2960 RMK AO2 CIG 004V011 P0001 T00610056

More Conditions Fewer Conditions

Pressure 29.60 in
Visibility 4.0 miles
Clouds Overcast 600 ft
Windchill 41 °F
Dew Point 40 °F
Humidity 86%
Rainfall 0.20 in
Snow Depth Not available.
UV 0 out of 12
Pollen .10 out of 12
Air Quality Not available.
Flu Activity Not available.
SPECI KHAO 012302Z AUTO VRB03KT 4SM -RA BR OVC006 06/06 A2960 RMK AO2 CIG 004V011 P0001 T00610056

More Conditions Fewer Conditions

10-Day Weather Forecast

Almanac

Astronomy

Feb. 01, 2015 Rise Set
Actual Time
Civil Twilight
Nautical Twilight
Astronomical Twilight
Moon
Length of Visible Light
Length of Day
Tomorrow will be .
, % of the Moon is Illuminated

Today's Extremes

State Highs State Lows

Community

WunderPhotos

Upload Photos

1,792,612 photos uploaded!

WunderBlogs® & News

Nearby

Air Quality

  Air Quality AQ Index Pollutant
Not available.

Snow Depth

Station Depth Elevation

Earthquake Activity

City Distance Mag. Time & Date
Minimum magnitude displayed is 2.5.

Coastal Water Temperatures

Place Temperature

Nearby Weather Stations